Latest Weather Observations for Arlington Reef

IDQ60801

Issued at 6:04 pm EST Monday 25 July 2016 (issued every 30 minutes, with the page automatically refreshed every 10 minutes)

About weather observations | Map of weather stations | Latest weather observations for QLD | Other Formats
Station Details ID: 200879 Name: ARLINGTON REEF Lat: -16.72 Lon: 146.11 Height: 0.0 m
Data from the previous 72 hours. | See also: Recent months at Arlington Reef
Date/Time
EST
Temp
°C
App
Temp
°C
Dew
Point
°C
Rel
Hum
%
Delta-T
°C
Wind Press
QNH
hPa
Press
MSL
hPa
Rain since
9am
mm
Dir  Spd
km/h
Gust
km/h
Spd
kts
Gust
kts
25/06:00pm - - - - - SSE 26 30 14 16 1013.8 1013.8 -
25/05:30pm - - - - - SSE 26 32 14 17 1013.8 1013.8 -
25/05:00pm - - - - - SSE 28 33 15 18 1013.6 1013.6 -
25/04:30pm - - - - - SSE 24 32 13 17 1013.8 1013.8 -
25/04:00pm - - - - - SSE 28 32 15 17 1013.7 1013.7 -
25/03:30pm - - - - - S 26 30 14 16 1013.7 1013.7 -
25/03:00pm - - - - - SSE 24 30 13 16 1013.9 1013.9 -
25/02:30pm - - - - - SSE 28 32 15 17 1014.0 1014.0 -
25/02:00pm - - - - - S 26 30 14 16 1014.3 1014.3 -
25/01:30pm - - - - - S 28 32 15 17 1014.6 1014.6 -
25/01:00pm - - - - - SSE 28 33 15 18 1015.1 1015.1 -
25/12:30pm - - - - - S 28 32 15 17 1015.4 1015.4 -
25/12:00pm - - - - - S 28 33 15 18 1015.7 1015.7 -
25/11:30am - - - - - S 28 33 15 18 1016.2 1016.2 -
25/11:00am - - - - - S 30 33 16 18 1016.3 1016.3 -
25/10:30am - - - - - SSE 30 35 16 19 1016.4 1016.4 -
25/10:00am - - - - - SSE 28 33 15 18 1016.5 1016.5 -
25/09:30am - - - - - SE 32 37 17 20 1016.6 1016.6 -
25/09:00am - - - - - SSE 26 30 14 16 1016.4 1016.4 -
25/08:30am - - - - - SSE 26 32 14 17 1016.2 1016.2 -
25/08:00am - - - - - SSE 24 28 13 15 1015.9 1015.9 -
25/07:30am - - - - - SSE 24 30 13 16 1015.7 1015.7 -
25/07:00am - - - - - SSE 24 28 13 15 1015.4 1015.4 -
25/06:30am - - - - - SE 24 30 13 16 1015.1 1015.1 -
25/06:00am - - - - - SE 26 32 14 17 1014.7 1014.7 -
25/05:30am - - - - - SE 22 28 12 15 1014.4 1014.4 -
25/05:00am - - - - - SE 20 28 11 15 1014.1 1014.1 -
25/04:30am - - - - - SE 22 28 12 15 1013.9 1013.9 -
25/04:00am - - - - - SSE 22 26 12 14 1013.8 1013.8 -
25/03:30am - - - - - SSE 22 26 12 14 1013.9 1013.9 -
25/03:00am - - - - - SSE 20 24 11 13 1014.1 1014.1 -
25/02:30am - - - - - SSE 22 28 12 15 1014.3 1014.3 -
25/02:00am - - - - - SSE 22 26 12 14 1014.5 1014.5 -
25/01:30am - - - - - SSE 22 26 12 14 1014.7 1014.7 -
25/01:00am - - - - - SSE 22 28 12 15 1014.9 1014.9 -
25/12:30am - - - - - SSE 24 28 13 15 1014.9 1014.9 -
25/12:00am - - - - - SSE 24 30 13 16 1015.1 1015.1 -
 
Date/Time
EST
Temp
°C
App
Temp
°C
Dew
Point
°C
Rel
Hum
%
Delta-T
°C
Wind Press
QNH
hPa
Press
MSL
hPa
Rain since
9am
mm
Dir  Spd
km/h
Gust
km/h
Spd
kts
Gust
kts
24/11:30pm - - - - - SSE 26 30 14 16 1015.3 1015.3 -
24/11:00pm - - - - - SSE 24 28 13 15 1015.4 1015.4 -
24/10:30pm - - - - - SSE 26 30 14 16 1015.5 1015.5 -
24/10:00pm - - - - - SSE 24 32 13 17 1015.7 1015.7 -
24/09:30pm - - - - - SSE 20 24 11 13 1015.5 1015.5 -
24/09:00pm - - - - - SSE 20 26 11 14 1015.3 1015.3 -
24/08:30pm - - - - - SSE 22 26 12 14 1015.1 1015.1 -
24/08:00pm - - - - - SSE 22 28 12 15 1014.8 1014.8 -
24/07:30pm - - - - - SSE 22 26 12 14 1014.5 1014.5 -
24/07:00pm - - - - - SSE 22 28 12 15 1014.2 1014.2 -
24/06:30pm - - - - - SSE 24 28 13 15 1013.9 1013.9 -
24/06:00pm - - - - - SSE 26 32 14 17 1013.6 1013.6 -
24/05:30pm - - - - - SSE 24 28 13 15 1013.5 1013.5 -
24/05:00pm - - - - - SSE 24 30 13 16 1013.3 1013.3 -
24/04:30pm - - - - - SSE 24 28 13 15 1013.2 1013.2 -
24/04:00pm - - - - - S 24 28 13 15 1012.9 1012.9 -
24/03:30pm - - - - - S 22 26 12 14 1013.0 1013.0 -
24/03:00pm - - - - - S 22 26 12 14 1013.3 1013.3 -
24/02:30pm - - - - - S 22 26 12 14 1013.6 1013.6 -
24/02:00pm - - - - - S 20 24 11 13 1013.8 1013.8 -
24/01:30pm - - - - - S 22 26 12 14 1014.2 1014.2 -
24/01:00pm - - - - - S 20 24 11 13 1014.6 1014.6 -
24/12:30pm - - - - - S 22 26 12 14 1014.9 1014.9 -
24/12:00pm - - - - - S 22 26 12 14 1015.2 1015.2 -
24/11:30am - - - - - S 24 28 13 15 1015.6 1015.6 -
24/11:00am - - - - - SSE 24 30 13 16 1015.5 1015.5 -
24/10:30am - - - - - S 24 28 13 15 1015.7 1015.7 -
24/10:00am - - - - - SSE 26 28 14 15 1015.9 1015.9 -
24/09:30am - - - - - SSE 26 30 14 16 1015.8 1015.8 -
24/09:00am - - - - - SSE 26 30 14 16 1015.6 1015.6 -
24/08:30am - - - - - S 22 26 12 14 1015.4 1015.4 -
24/08:00am - - - - - SSE 22 28 12 15 1015.0 1015.0 -
24/07:30am - - - - - SSE 20 28 11 15 1014.8 1014.8 -
24/07:00am - - - - - SSE 22 26 12 14 1014.5 1014.5 -
24/06:30am - - - - - SE 22 28 12 15 1014.2 1014.2 -
24/06:00am - - - - - SE 20 24 11 13 1013.9 1013.9 -
24/05:30am - - - - - SE 19 22 10 12 1013.6 1013.6 -
24/05:00am - - - - - SE 19 22 10 12 1013.4 1013.4 -
24/04:30am - - - - - SE 19 22 10 12 1013.3 1013.3 -
24/04:00am - - - - - ESE 17 22 9 12 1013.3 1013.3 -
24/03:30am - - - - - ESE 20 26 11 14 1013.2 1013.2 -
24/03:00am - - - - - ESE 17 22 9 12 1013.4 1013.4 -
24/02:30am - - - - - ESE 15 19 8 10 1013.5 1013.5 -
24/02:00am - - - - - ESE 17 20 9 11 1013.7 1013.7 -
24/01:30am - - - - - ESE 17 19 9 10 1013.9 1013.9 -
24/01:00am - - - - - SE 19 24 10 13 1013.9 1013.9 -
24/12:30am - - - - - ESE 20 22 11 12 1013.9 1013.9 -
24/12:00am - - - - - ESE 15 17 8 9 1014.1 1014.1 -
 
Date/Time
EST
Temp
°C
App
Temp
°C
Dew
Point
°C
Rel
Hum
%
Delta-T
°C
Wind Press
QNH
hPa
Press
MSL
hPa
Rain since
9am
mm
Dir  Spd
km/h
Gust
km/h
Spd
kts
Gust
kts
23/11:30pm - - - - - SE 19 24 10 13 1014.1 1014.1 -
23/11:00pm - - - - - ESE 19 22 10 12 1014.1 1014.1 -
23/10:30pm - - - - - ESE 20 24 11 13 1014.1 1014.1 -
23/10:00pm - - - - - SE 19 22 10 12 1014.2 1014.2 -
23/09:30pm - - - - - SSE 17 20 9 11 1014.1 1014.1 -
23/09:00pm - - - - - SE 20 24 11 13 1013.9 1013.9 -
23/08:30pm - - - - - SE 20 26 11 14 1013.6 1013.6 -
23/08:00pm - - - - - SE 22 24 12 13 1013.2 1013.2 -
23/07:30pm - - - - - SSE 22 24 12 13 1013.0 1013.0 -
23/07:00pm - - - - - SE 20 24 11 13 1013.0 1013.0 -
23/06:30pm - - - - - SSE 24 26 13 14 1012.6 1012.6 -
23/06:00pm - - - - - SE 24 28 13 15 1012.3 1012.3 -
23/05:30pm - - - - - SE 28 33 15 18 1012.2 1012.2 -
23/05:00pm - - - - - SE 28 32 15 17 1011.9 1011.9 -
23/04:30pm - - - - - SSE 26 30 14 16 1011.8 1011.8 -
23/04:00pm - - - - - SSE 26 30 14 16 1011.7 1011.7 -
23/03:30pm - - - - - SSE 26 28 14 15 1011.8 1011.8 -
23/03:00pm - - - - - S 24 28 13 15 1012.0 1012.0 -
23/02:30pm - - - - - S 24 28 13 15 1012.3 1012.3 -
23/02:00pm - - - - - SSE 24 30 13 16 1012.6 1012.6 -
23/01:30pm - - - - - S 26 30 14 16 1012.9 1012.9 -
23/01:00pm - - - - - S 26 32 14 17 1013.3 1013.3 -
23/12:30pm - - - - - S 24 26 13 14 1013.7 1013.7 -
23/12:00pm - - - - - S 26 32 14 17 1014.0 1014.0 -
23/11:30am - - - - - S 24 28 13 15 1014.2 1014.2 -
23/11:00am - - - - - S 24 26 13 14 1014.5 1014.5 -
23/10:30am - - - - - S 20 26 11 14 1015.1 1015.1 -
23/10:00am - - - - - SSE 19 22 10 12 1015.2 1015.2 -
23/09:30am - - - - - SSE 19 20 10 11 1015.1 1015.1 -
23/09:00am - - - - - S 20 24 11 13 1014.9 1014.9 -
23/08:30am - - - - - SSE 20 24 11 13 1014.9 1014.9 -
23/08:00am - - - - - SSE 22 26 12 14 1014.7 1014.7 -
23/07:30am - - - - - S 22 26 12 14 1014.5 1014.5 -
23/07:00am - - - - - SSE 20 24 11 13 1014.2 1014.2 -
23/06:30am - - - - - SSE 22 26 12 14 1014.0 1014.0 -
23/06:00am - - - - - S 22 28 12 15 1013.7 1013.7 -
23/05:30am - - - - - S 20 24 11 13 1013.3 1013.3 -
23/05:00am - - - - - S 20 24 11 13 1013.1 1013.1 -
23/04:30am - - - - - S 22 26 12 14 1013.1 1013.1 -
23/04:00am - - - - - SSE 22 30 12 16 1013.1 1013.1 -
23/03:30am - - - - - SSE 24 28 13 15 1012.9 1012.9 -
23/03:00am - - - - - SSE 22 26 12 14 1013.0 1013.0 -
23/02:30am - - - - - SSE 22 24 12 13 1013.2 1013.2 -
23/02:00am - - - - - SSE 22 28 12 15 1013.3 1013.3 -
23/01:30am - - - - - SSE 22 26 12 14 1013.7 1013.7 -
23/01:00am - - - - - SSE 20 24 11 13 1014.0 1014.0 -
23/12:30am - - - - - SSE 20 22 11 12 1014.3 1014.3 -
23/12:00am - - - - - SSE 20 24 11 13 1014.4 1014.4 -
 
Date/Time
EST
Temp
°C
App
Temp
°C
Dew
Point
°C
Rel
Hum
%
Delta-T
°C
Wind Press
QNH
hPa
Press
MSL
hPa
Rain since
9am
mm
Dir  Spd
km/h
Gust
km/h
Spd
kts
Gust
kts
22/11:30pm - - - - - SSE 24 28 13 15 1014.4 1014.4 -
22/11:00pm - - - - - SSE 26 30 14 16 1014.4 1014.4 -
22/10:30pm - - - - - SSE 26 30 14 16 1014.4 1014.4 -
22/10:00pm - - - - - SSE 28 33 15 18 1014.1 1014.1 -
22/09:30pm - - - - - SSE 28 35 15 19 1013.8 1013.8 -
22/09:00pm - - - - - SSE 30 33 16 18 1013.8 1013.8 -
22/08:30pm - - - - - SSE 30 35 16 19 1013.7 1013.7 -
22/08:00pm - - - - - SSE 30 33 16 18 1013.6 1013.6 -
22/07:30pm - - - - - SSE 30 33 16 18 1013.6 1013.6 -
22/07:00pm - - - - - SSE 30 33 16 18 1013.4 1013.4 -
22/06:30pm - - - - - SSE 28 32 15 17 1013.2 1013.2 -

Other Formats:

Comma delimited format used in spreadsheet applications
http://www.bom.gov.au/fwo/IDQ60801/IDQ60801.94284.axf

JavaScript Object Notation format (JSON) in row-major order
http://www.bom.gov.au/fwo/IDQ60801/IDQ60801.94284.json